Time;durP1;ratioP1;P1;durP2;ratioP2;P2;SDS_P1;SDS_P2;PMS_P1;PMS_P2;Temp;Humidity;BMP_temperature;BMP_pressure;BME280_temperature;BME280_humidity;BME280_pressure;Samples;Min_cycle;Max_cycle;Signal;HPM_P1;HPM_P2
2021/03/11 00:00:55;;;;;;;42.97;24.00;;;13.20;2201.60;;;;;;4992523;28;20493;-70
2021/03/11 00:03:23;;;;;;;46.65;23.92;;;13.30;2201.60;;;;;;4992300;28;20026;-70
2021/03/11 00:05:49;;;;;;;44.90;24.38;;;13.30;2201.60;;;;;;4994312;28;20018;-70
2021/03/11 00:08:15;;;;;;;45.20;24.25;;;13.30;2201.60;;;;;;4995271;28;20035;-70
2021/03/11 00:10:41;;;;;;;45.63;24.73;;;13.30;2201.60;;;;;;4991583;28;20030;-70
2021/03/11 00:13:08;;;;;;;44.70;24.67;;;13.40;2201.60;;;;;;4991647;28;20050;-70
2021/03/11 00:15:36;;;;;;;41.40;23.88;;;13.40;2201.60;;;;;;4997314;28;20542;-70
2021/03/11 00:18:03;;;;;;;48.10;24.10;;;13.40;2201.60;;;;;;4996335;28;20018;-70
2021/03/11 00:20:29;;;;;;;41.80;23.38;;;13.40;2201.60;;;;;;4993124;28;20058;-70
2021/03/11 00:22:55;;;;;;;54.83;25.10;;;13.50;2201.60;;;;;;4994419;28;20053;-70
2021/03/11 00:25:24;;;;;;;54.50;27.08;;;13.50;2201.60;;;;;;4992763;28;20032;-70
2021/03/11 00:27:50;;;;;;;46.97;24.27;;;13.50;2201.60;;;;;;4992567;28;20077;-70
2021/03/11 00:30:17;;;;;;;46.53;24.52;;;13.50;2201.60;;;;;;4991628;28;20052;-70
2021/03/11 00:32:43;;;;;;;48.03;24.05;;;13.50;2201.60;;;;;;4994399;28;20030;-70
2021/03/11 00:35:10;;;;;;;49.65;25.02;;;13.60;2201.60;;;;;;4994483;28;20034;-70
2021/03/11 00:37:38;;;;;;;46.80;23.33;;;13.60;2201.60;;;;;;4992283;28;20198;-70
2021/03/11 00:40:06;;;;;;;41.70;21.45;;;13.60;2201.60;;;;;;4993407;28;20033;-70
2021/03/11 00:42:32;;;;;;;34.80;19.75;;;13.60;2201.60;;;;;;4991131;28;20081;-70
2021/03/11 00:45:02;;;;;;;37.05;19.50;;;13.60;2201.60;;;;;;4993534;28;20026;-69
2021/03/11 00:47:27;;;;;;;36.15;19.88;;;13.60;2201.60;;;;;;4994007;28;20030;-70
2021/03/11 00:49:53;;;;;;;34.65;19.23;;;13.60;2201.60;;;;;;4993654;28;20029;-70
2021/03/11 00:52:19;;;;;;;39.85;21.35;;;13.70;2201.60;;;;;;4996326;28;20029;-71
2021/03/11 00:54:45;;;;;;;42.47;22.00;;;13.70;2201.60;;;;;;4996230;28;20022;-71
2021/03/11 00:57:10;;;;;;;48.40;23.45;;;13.70;2201.60;;;;;;4997223;28;20014;-70
2021/03/11 00:59:36;;;;;;;44.25;24.55;;;13.70;2201.60;;;;;;4994610;28;20073;-70
2021/03/11 01:02:05;;;;;;;51.88;25.92;;;13.70;2201.60;;;;;;4995321;28;20018;-73
2021/03/11 01:04:31;;;;;;;43.10;22.42;;;13.70;2201.60;;;;;;4993622;28;20553;-70
2021/03/11 01:06:57;;;;;;;49.85;24.83;;;13.70;2201.60;;;;;;4993619;28;20030;-70
2021/03/11 01:09:23;;;;;;;45.05;22.70;;;13.70;2201.60;;;;;;4998170;28;20026;-69
2021/03/11 01:11:48;;;;;;;35.75;20.58;;;38.40;2201.60;;;;;;4993935;28;20038;-70
2021/03/11 01:14:14;;;;;;;30.58;18.42;;;38.40;2201.60;;;;;;4993967;28;20062;-70
2021/03/11 01:16:42;;;;;;;28.25;17.23;;;38.40;2201.60;;;;;;4994355;28;20106;-70
2021/03/11 01:19:08;;;;;;;29.63;17.08;;;38.40;2201.60;;;;;;4993115;28;20030;-70
2021/03/11 01:21:33;;;;;;;29.02;17.80;;;38.40;2201.60;;;;;;4996455;28;20018;-70
2021/03/11 01:23:59;;;;;;;30.42;17.73;;;38.50;2201.60;;;;;;4994757;28;20053;-70
2021/03/11 01:26:25;;;;;;;32.20;18.60;;;38.50;2201.60;;;;;;4995596;28;20026;-70
2021/03/11 01:28:51;;;;;;;30.63;17.33;;;38.50;2201.60;;;;;;4993387;28;20026;-71
2021/03/11 01:31:17;;;;;;;32.10;17.25;;;38.50;2201.60;;;;;;4994262;28;20060;-69
2021/03/11 01:33:42;;;;;;;38.00;21.40;;;38.50;2201.60;;;;;;4992623;28;20026;-69
2021/03/11 01:36:08;;;;;;;43.90;22.90;;;38.60;2201.60;;;;;;4993127;28;20028;-69
2021/03/11 01:38:34;;;;;;;53.25;26.92;;;38.70;2201.60;;;;;;4995721;28;20381;-69
2021/03/11 01:40:59;;;;;;;49.05;25.60;;;38.70;2201.60;;;;;;4994351;28;20019;-69
2021/03/11 01:43:25;;;;;;;46.58;23.85;;;38.70;2201.60;;;;;;4994948;28;20072;-69
2021/03/11 01:45:51;;;;;;;50.03;26.23;;;38.80;2201.60;;;;;;4993459;28;20221;-70
2021/03/11 01:48:17;;;;;;;40.60;23.08;;;38.80;2201.60;;;;;;4997855;28;20026;-70
2021/03/11 01:50:50;;;;;;;33.55;21.10;;;38.80;2201.60;;;;;;5007116;28;20434;-73
2021/03/11 01:53:16;;;;;;;34.72;19.90;;;38.80;2201.60;;;;;;4994171;28;20526;-74
2021/03/11 01:55:43;;;;;;;36.13;20.52;;;38.80;2201.60;;;;;;5000307;28;20030;-74
2021/03/11 01:58:08;;;;;;;37.42;20.70;;;38.80;2201.60;;;;;;5012571;28;20022;-75
2021/03/11 02:00:35;;;;;;;38.00;20.52;;;38.80;2201.60;;;;;;5012623;28;20091;-72
2021/03/11 02:03:01;;;;;;;35.38;20.73;;;38.90;2201.60;;;;;;5013323;28;20416;-71
2021/03/11 02:05:27;;;;;;;36.92;20.30;;;38.90;2201.60;;;;;;5012625;28;20274;-75
2021/03/11 02:07:53;;;;;;;34.88;19.88;;;38.90;2201.60;;;;;;5012788;28;20061;-74
2021/03/11 02:10:24;;;;;;;33.70;19.92;;;39.00;2201.60;;;;;;5012503;28;20040;-80
2021/03/11 02:13:01;;;;;;;34.17;20.08;;;39.00;2201.60;;;;;;4999450;28;20100;-72
2021/03/11 02:15:33;;;;;;;34.47;19.02;;;39.00;2201.60;;;;;;5011896;28;20382;-76
2021/03/11 02:18:08;;;;;;;34.30;19.80;;;39.00;2201.60;;;;;;5012539;28;20042;-76
2021/03/11 02:20:53;;;;;;;35.17;19.70;;;39.00;2201.60;;;;;;5011865;28;20759;-71
2021/03/11 02:23:49;;;;;;;36.38;20.10;;;39.10;2201.60;;;;;;5012363;28;20038;-71
2021/03/11 02:26:24;;;;;;;36.97;20.35;;;39.10;2201.60;;;;;;5012423;28;20029;-76
2021/03/11 02:29:11;;;;;;;36.10;20.65;;;39.30;2201.60;;;;;;5012055;28;20033;-79
2021/03/11 02:31:39;;;;;;;36.95;21.25;;;39.30;2201.60;;;;;;4994938;28;20042;-75
2021/03/11 02:34:11;;;;;;;38.63;21.88;;;39.30;2201.60;;;;;;5004140;28;20026;-79
2021/03/11 02:36:37;;;;;;;42.53;23.60;;;64.00;2201.60;;;;;;5012416;28;20049;-75
2021/03/11 02:39:07;;;;;;;42.65;23.33;;;64.00;2201.60;;;;;;5012026;28;20095;-78
2021/03/11 02:41:35;;;;;;;39.45;22.98;;;39.30;2201.60;;;;;;5011879;28;20022;-70
2021/03/11 02:44:01;;;;;;;44.40;23.90;;;64.00;2201.60;;;;;;5012425;28;20491;-73
2021/03/11 02:46:28;;;;;;;46.10;24.80;;;64.00;2201.60;;;;;;5011840;28;20030;-74
2021/03/11 02:48:55;;;;;;;45.00;24.95;;;64.10;2201.60;;;;;;5011653;28;20026;-70
2021/03/11 02:51:21;;;;;;;58.00;29.77;;;64.10;2201.60;;;;;;5011917;28;20036;-75
2021/03/11 02:53:48;;;;;;;67.55;33.63;;;64.10;2201.60;;;;;;5012056;28;20112;-69
2021/03/11 02:56:15;;;;;;;61.75;32.88;;;64.10;2201.60;;;;;;5006511;28;20017;-70
2021/03/11 02:58:43;;;;;;;58.53;31.55;;;64.10;2201.60;;;;;;5011452;28;20072;-73
2021/03/11 03:01:10;;;;;;;68.43;34.13;;;64.20;2201.60;;;;;;5011894;28;20024;-70
2021/03/11 03:03:37;;;;;;;60.83;33.90;;;64.10;2201.60;;;;;;5011632;28;20025;-69
2021/03/11 03:06:04;;;;;;;63.92;33.90;;;64.20;2201.60;;;;;;5011724;28;20026;-70
2021/03/11 03:08:31;;;;;;;60.78;33.92;;;64.20;2201.60;;;;;;5011220;28;20026;-69
2021/03/11 03:10:58;;;;;;;65.82;34.33;;;64.20;2201.60;;;;;;5011745;28;20053;-69
2021/03/11 03:13:24;;;;;;;69.55;38.45;;;64.30;2201.60;;;;;;5011547;28;20080;-69
2021/03/11 03:15:50;;;;;;;75.28;38.22;;;64.30;2201.60;;;;;;5011468;28;20479;-70
2021/03/11 03:18:18;;;;;;;88.82;44.53;;;64.30;2201.60;;;;;;5011652;28;20060;-72
2021/03/11 03:20:45;;;;;;;85.25;45.00;;;64.40;2201.60;;;;;;5011163;28;20479;-73
2021/03/11 03:23:12;;;;;;;81.30;43.80;;;64.40;2201.60;;;;;;5011603;28;20022;-69
2021/03/11 03:25:37;;;;;;;89.28;47.53;;;64.40;2201.60;;;;;;5011216;28;20387;-73
2021/03/11 03:28:03;;;;;;;85.95;44.08;;;64.40;2201.60;;;;;;5011686;28;20053;-72
2021/03/11 03:30:29;;;;;;;79.28;41.15;;;64.40;2201.60;;;;;;5010875;28;20026;-69
2021/03/11 03:32:55;;;;;;;82.43;41.03;;;64.40;2201.60;;;;;;5011424;28;20049;-69
2021/03/11 03:35:24;;;;;;;82.25;41.42;;;64.50;2201.60;;;;;;5011326;28;20072;-73
2021/03/11 03:37:52;;;;;;;84.03;42.22;;;64.50;2201.60;;;;;;5011233;28;20022;-69
2021/03/11 03:40:20;;;;;;;85.97;44.00;;;64.50;2201.60;;;;;;5011015;28;20014;-69
2021/03/11 03:42:58;;;;;;;85.75;44.70;;;64.40;2201.60;;;;;;5010432;28;20022;-73
2021/03/11 03:45:27;;;;;;;83.78;43.45;;;64.50;2201.60;;;;;;5009865;28;20440;-70
2021/03/11 03:47:56;;;;;;;86.38;45.00;;;64.50;2201.60;;;;;;5011105;28;20033;-69
2021/03/11 03:50:24;;;;;;;79.05;40.50;;;64.50;2201.60;;;;;;5010960;28;20478;-74
2021/03/11 03:52:52;;;;;;;89.78;44.60;;;64.50;2201.60;;;;;;5011300;28;20116;-73
2021/03/11 03:55:20;;;;;;;84.53;43.83;;;64.50;2201.60;;;;;;5011174;28;20010;-72
2021/03/11 03:57:50;;;;;;;86.38;43.20;;;64.50;2201.60;;;;;;5011129;28;20029;-80
2021/03/11 04:00:17;;;;;;;88.43;43.35;;;64.60;2201.60;;;;;;5010887;28;20068;-72
2021/03/11 04:02:44;;;;;;;86.38;43.53;;;64.60;2201.60;;;;;;5011197;28;20552;-72
2021/03/11 04:05:11;;;;;;;87.47;44.00;;;64.60;2201.60;;;;;;5010941;28;20030;-74
2021/03/11 04:07:38;;;;;;;80.78;42.80;;;64.60;2201.60;;;;;;5011354;28;20359;-74
2021/03/11 04:10:08;;;;;;;85.38;41.63;;;64.60;2201.60;;;;;;5009388;28;20026;-70
2021/03/11 04:12:35;;;;;;;78.65;40.70;;;64.60;2201.60;;;;;;5010848;28;20041;-70
2021/03/11 04:15:03;;;;;;;82.30;40.60;;;64.60;2201.60;;;;;;5011073;28;20364;-78
2021/03/11 04:17:29;;;;;;;83.97;40.55;;;64.60;2201.60;;;;;;5009341;28;20037;-79
2021/03/11 04:19:56;;;;;;;88.68;40.97;;;64.60;2201.60;;;;;;5012208;28;20064;-71
2021/03/11 04:22:22;;;;;;;83.88;39.05;;;64.60;2201.60;;;;;;5014734;28;20497;-74
2021/03/11 04:24:49;;;;;;;97.93;41.45;;;64.60;2201.60;;;;;;5014778;28;20033;-74
2021/03/11 04:27:15;;;;;;;99.78;42.85;;;64.70;2201.60;;;;;;5014600;28;20022;-70
2021/03/11 04:29:40;;;;;;;110.53;45.33;;;64.70;2201.60;;;;;;5014795;28;20030;-74
2021/03/11 04:32:07;;;;;;;93.00;43.08;;;64.70;2201.60;;;;;;5014594;28;20062;-71
2021/03/11 04:34:33;;;;;;;98.10;45.97;;;64.70;2201.60;;;;;;5014313;28;20030;-73
2021/03/11 04:37:00;;;;;;;118.47;49.65;;;64.70;2201.60;;;;;;5014816;28;20064;-69
2021/03/11 04:39:26;;;;;;;126.97;54.45;;;64.70;2201.60;;;;;;5013935;28;20013;-74
2021/03/11 04:41:53;;;;;;;114.53;51.50;;;64.70;2201.60;;;;;;5014305;28;20026;-72
2021/03/11 04:44:24;;;;;;;128.63;58.55;;;64.70;2201.60;;;;;;5014380;28;20038;-73
2021/03/11 04:46:52;;;;;;;134.90;59.63;;;64.70;2201.60;;;;;;5014270;28;20060;-69
2021/03/11 04:49:19;;;;;;;119.68;54.88;;;64.80;2201.60;;;;;;5014070;28;20052;-71
2021/03/11 04:51:45;;;;;;;115.10;56.33;;;64.70;2201.60;;;;;;5014249;28;20033;-69
2021/03/11 04:54:12;;;;;;;129.60;60.78;;;64.70;2201.60;;;;;;5014230;28;20030;-69
2021/03/11 04:56:40;;;;;;;132.10;59.45;;;64.70;2201.60;;;;;;5013883;28;20026;-70
2021/03/11 04:59:06;;;;;;;144.23;66.50;;;64.70;2201.60;;;;;;5014216;28;20026;-73
2021/03/11 05:01:36;;;;;;;135.75;61.90;;;64.60;2201.60;;;;;;5014239;28;20037;-72
2021/03/11 05:04:04;;;;;;;131.27;59.10;;;64.60;2201.60;;;;;;5014220;28;20068;-69
2021/03/11 05:06:30;;;;;;;128.10;59.58;;;64.70;2201.60;;;;;;5013767;28;20052;-77
2021/03/11 05:08:56;;;;;;;139.75;64.45;;;64.60;2201.60;;;;;;5013498;28;20034;-69
2021/03/11 05:11:22;;;;;;;126.63;58.40;;;64.50;2201.60;;;;;;5013574;28;20030;-69
2021/03/11 05:13:47;;;;;;;109.53;50.72;;;64.50;2201.60;;;;;;5013649;28;20483;-69
2021/03/11 05:16:13;;;;;;;105.03;47.55;;;64.50;2201.60;;;;;;5013740;28;20041;-73
2021/03/11 05:18:39;;;;;;;110.95;51.45;;;64.40;2201.60;;;;;;5013437;28;20100;-71
2021/03/11 05:21:06;;;;;;;119.20;51.58;;;64.30;2201.60;;;;;;5014006;28;20026;-69
2021/03/11 05:23:32;;;;;;;136.48;63.95;;;64.20;2201.60;;;;;;5013565;28;20399;-72
2021/03/11 05:25:58;;;;;;;114.57;54.28;;;64.10;2201.60;;;;;;5012310;28;20054;-73
2021/03/11 05:28:24;;;;;;;108.72;52.58;;;39.30;2201.60;;;;;;5013757;28;20033;-72
2021/03/11 05:30:50;;;;;;;100.25;47.97;;;39.00;2201.60;;;;;;5013474;28;20022;-72
2021/03/11 05:33:15;;;;;;;106.25;50.22;;;38.70;2201.60;;;;;;5013519;28;20545;-70
2021/03/11 05:35:42;;;;;;;94.30;46.17;;;38.50;2201.60;;;;;;5013658;28;20057;-72
2021/03/11 05:38:08;;;;;;;84.07;43.05;;;13.70;2201.60;;;;;;5013354;28;20026;-73
2021/03/11 05:40:34;;;;;;;96.13;48.05;;;13.20;2201.60;;;;;;5013215;28;20025;-69
2021/03/11 05:43:03;;;;;;;95.53;46.78;;;0.10;2201.60;;;;;;5013532;28;20033;-73
2021/03/11 05:45:29;;;;;;;79.90;40.08;;;0.50;2201.60;;;;;;5013219;28;20429;-70
2021/03/11 05:47:55;;;;;;;73.32;40.30;;;0.70;2201.60;;;;;;5013229;28;20480;-69
2021/03/11 05:50:22;;;;;;;77.57;42.15;;;25.70;2201.60;;;;;;5013040;28;20072;-70
2021/03/11 05:52:48;;;;;;;93.18;47.92;;;25.90;2201.60;;;;;;5012910;28;20076;-74
2021/03/11 05:55:15;;;;;;;82.30;45.58;;;26.00;2201.60;;;;;;5013207;28;20514;-73
2021/03/11 05:57:43;;;;;;;80.00;44.25;;;26.00;2201.60;;;;;;5012984;28;20022;-69
2021/03/11 06:00:14;;;;;;;69.07;40.97;;;26.40;2201.60;;;;;;5012667;28;20030;-70
2021/03/11 06:02:43;;;;;;;67.53;39.03;;;51.40;2227.20;;;;;;5012895;28;20030;-74
2021/03/11 06:05:16;;;;;;;63.55;36.28;;;52.00;2227.20;;;;;;5012751;28;20022;-72
2021/03/11 06:07:46;;;;;;;50.83;33.83;;;76.80;2227.20;;;;;;5012741;28;20022;-75
2021/03/11 06:10:15;;;;;;;51.65;34.40;;;77.40;2227.20;;;;;;5012372;28;20026;-79
2021/03/11 06:12:43;;;;;;;50.75;33.72;;;102.40;2176.00;;;;;;5012659;28;20038;-70
2021/03/11 06:15:34;;;;;;;42.95;28.77;;;102.60;2176.00;;;;;;5012638;28;20053;-73
2021/03/11 06:18:04;;;;;;;41.42;27.80;;;102.80;2150.40;;;;;;5002107;28;20034;-70
2021/03/11 06:20:30;;;;;;;46.72;30.55;;;103.00;2099.20;;;;;;5012151;28;20101;-75
2021/03/11 06:22:56;;;;;;;43.47;30.40;;;103.10;2073.60;;;;;;5012538;28;20058;-75
2021/03/11 06:25:22;;;;;;;42.88;30.00;;;103.20;2048.00;;;;;;5012412;28;20034;-81
2021/03/11 06:27:47;;;;;;;44.88;30.75;;;128.40;2022.40;;;;;;5012494;28;20029;-74
2021/03/11 06:30:28;;;;;;;47.65;32.35;;;128.80;1971.20;;;;;;5012227;28;20428;-73
2021/03/11 06:32:55;;;;;;;52.83;34.50;;;128.90;1971.20;;;;;;4998826;28;20057;-72
2021/03/11 06:35:21;;;;;;;46.60;33.28;;;153.80;1920.00;;;;;;5012279;28;20033;-72
2021/03/11 06:37:50;;;;;;;45.78;32.15;;;154.10;1920.00;;;;;;5012604;28;20025;-76
2021/03/11 06:40:20;;;;;;;47.85;33.15;;;154.40;1894.40;;;;;;5011948;28;20032;-72
2021/03/11 06:42:47;;;;;;;43.97;32.53;;;179.30;1843.20;;;;;;5011934;28;20029;-75
2021/03/11 06:45:27;;;;;;;47.75;34.53;;;179.60;1817.60;;;;;;5012291;28;20467;-71
2021/03/11 06:48:19;;;;;;;52.83;36.13;;;179.80;1792.00;;;;;;5011906;28;20475;-71
2021/03/11 06:50:45;;;;;;;54.00;36.03;;;205.60;1638.40;;;;;;5012056;28;20045;-74
2021/03/11 06:53:11;;;;;;;51.28;34.78;;;256.80;1459.20;;;;;;5011622;28;20127;-80
2021/03/11 06:55:36;;;;;;;51.40;36.25;;;282.20;1433.60;;;;;;5012413;28;20033;-81
2021/03/11 06:58:22;;;;;;;48.38;35.50;;;333.40;1331.20;;;;;;5011933;28;20375;-78
2021/03/11 07:01:02;;;;;;;67.25;44.92;;;359.30;1254.40;;;;;;5000149;28;20539;-82
2021/03/11 07:03:43;;;;;;;72.13;47.50;;;409.60;1177.60;;;;;;5011454;28;20111;-73
2021/03/11 07:06:10;;;;;;;77.03;51.50;;;410.50;1100.80;;;;;;5011826;28;20108;-81
2021/03/11 07:08:49;;;;;;;72.35;46.58;;;435.30;1075.20;;;;;;5010186;28;20041;-77
2021/03/11 07:11:14;;;;;;;71.60;49.08;;;435.50;1075.20;;;;;;5011803;28;20017;-73
2021/03/11 07:13:41;;;;;;;61.60;43.70;;;461.10;1049.60;;;;;;5011248;28;20050;-73
2021/03/11 07:16:27;;;;;;;67.13;45.05;;;461.50;998.40;;;;;;5011870;28;20112;-73
2021/03/11 07:19:20;;;;;;;63.13;45.30;;;461.60;998.40;;;;;;5011051;28;20018;-73
2021/03/11 07:21:51;;;;;;;71.00;48.58;;;461.20;998.40;;;;;;5011505;28;20443;-77
2021/03/11 07:24:33;;;;;;;;;;;486.50;972.80;;;;;;5011859;28;20026;-75
2021/03/11 07:26:59;;;;;;;58.42;41.75;;;486.40;972.80;;;;;;5011632;28;19931;-73
2021/03/11 07:29:25;;;;;;;66.40;49.10;;;461.50;947.20;;;;;;5010986;28;20101;-82
2021/03/11 07:31:59;;;;;;;59.22;40.15;;;486.60;972.80;;;;;;5011350;28;20493;-81
2021/03/11 07:34:27;;;;;;;55.78;39.60;;;487.20;921.60;;;;;;5011427;28;20022;-73
2021/03/11 07:36:58;;;;;;;56.03;41.00;;;512.70;844.80;;;;;;5011762;28;20088;-75
2021/03/11 07:39:30;;;;;;;53.35;39.45;;;512.50;844.80;;;;;;5010861;28;20018;-77
2021/03/11 07:41:56;;;;;;;70.00;48.13;;;538.20;844.80;;;;;;5011368;28;20067;-75
2021/03/11 07:44:22;;;;;;;60.67;44.50;;;538.40;819.20;;;;;;5011423;28;20030;-74
2021/03/11 07:46:49;;;;;;;58.53;43.50;;;563.90;819.20;;;;;;5011350;28;20372;-74
2021/03/11 07:49:16;;;;;;;66.88;46.72;;;563.40;819.20;;;;;;5010901;28;20026;-74
2021/03/11 07:51:42;;;;;;;56.78;40.33;;;563.80;819.20;;;;;;5011305;28;20026;-74
2021/03/11 07:54:08;;;;;;;48.42;38.20;;;589.70;768.00;;;;;;5011658;28;20105;-74
2021/03/11 07:56:34;;;;;;;52.50;43.45;;;588.90;793.60;;;;;;5015372;28;20025;-74
2021/03/11 07:59:04;;;;;;;43.83;35.60;;;614.40;768.00;;;;;;5015148;28;20022;-75
2021/03/11 08:01:33;;;;;;;53.00;40.72;;;588.80;768.00;;;;;;5015470;28;20399;-74
2021/03/11 08:04:00;;;;;;;42.83;34.78;;;640.20;716.80;;;;;;5015189;28;20025;-75
2021/03/11 08:06:26;;;;;;;46.83;36.85;;;640.90;716.80;;;;;;5015171;28;20030;-79
2021/03/11 08:08:53;;;;;;;41.92;36.00;;;640.60;742.40;;;;;;5014526;28;20028;-76
2021/03/11 08:11:40;;;;;;;46.85;36.72;;;691.30;716.80;;;;;;5015173;28;20483;-75
2021/03/11 08:14:33;;;;;;;45.10;36.38;;;717.40;691.20;;;;;;5014773;28;20101;-75
2021/03/11 08:17:34;;;;;;;46.55;36.53;;;717.40;665.60;;;;;;5014601;28;20022;-75
2021/03/11 08:20:20;;;;;;;;;;;716.90;665.60;;;;;;5015063;28;20117;-75
2021/03/11 08:22:52;;;;;;;40.85;35.08;;;742.80;665.60;;;;;;5014814;28;19929;-77
2021/03/11 08:25:33;;;;;;;39.85;35.55;;;742.70;665.60;;;;;;5014802;28;20026;-75
2021/03/11 08:28:23;;;;;;;34.53;30.80;;;717.50;665.60;;;;;;5002874;28;20058;-75
2021/03/11 08:30:55;;;;;;;41.38;35.00;;;743.30;665.60;;;;;;5014314;28;20018;-79
2021/03/11 08:33:21;;;;;;;37.67;31.42;;;742.90;640.00;;;;;;5014830;28;20092;-79
2021/03/11 08:35:49;;;;;;;37.42;32.10;;;743.00;665.60;;;;;;5014823;28;20499;-77
2021/03/11 08:38:21;;;;;;;33.55;29.58;;;768.90;640.00;;;;;;5014769;28;20029;-74
2021/03/11 08:41:07;;;;;;;41.45;33.47;;;819.30;614.40;;;;;;5014247;28;20030;-78
2021/03/11 08:46:08;;;;;;;32.05;28.20;;;870.60;563.20;;;;;;5014724;28;20033;-73
2021/03/11 08:49:02;;;;;;;28.65;25.55;;;870.50;563.20;;;;;;5013998;28;20088;-72
2021/03/11 08:51:30;;;;;;;29.17;24.95;;;845.40;588.80;;;;;;5014070;28;20120;-73
2021/03/11 08:53:59;;;;;;;29.85;26.63;;;870.70;563.20;;;;;;5014383;28;20459;-73
2021/03/11 08:56:27;;;;;;;28.73;25.65;;;870.80;537.60;;;;;;5014431;28;20113;-72
2021/03/11 08:59:01;;;;;;;25.80;22.52;;;896.60;512.00;;;;;;5000756;28;20093;-72
2021/03/11 09:01:37;;;;;;;33.58;30.27;;;921.90;512.00;;;;;;5014121;28;20382;-77
2021/03/11 09:04:23;;;;;;;26.90;23.67;;;921.70;512.00;;;;;;5001263;28;20141;-73
2021/03/11 09:06:57;;;;;;;25.10;22.38;;;922.20;512.00;;;;;;5013180;28;20049;-72
2021/03/11 09:09:41;;;;;;;30.33;25.95;;;922.50;512.00;;;;;;5013701;28;20040;-73
2021/03/11 09:12:16;;;;;;;29.40;26.25;;;922.30;512.00;;;;;;5013832;28;20041;-72
2021/03/11 09:14:49;;;;;;;23.35;20.20;;;922.20;512.00;;;;;;5013865;28;20040;-72
2021/03/11 09:17:21;;;;;;;24.13;21.45;;;921.90;512.00;;;;;;5013921;28;20037;-73
2021/03/11 09:19:49;;;;;;;24.02;21.40;;;947.30;486.40;;;;;;5013215;28;20407;-72
2021/03/11 09:22:31;;;;;;;21.42;18.65;;;947.50;486.40;;;;;;5013601;28;20032;-77
2021/03/11 09:25:02;;;;;;;24.17;21.58;;;947.90;460.80;;;;;;5013912;28;20048;-72
2021/03/11 09:27:29;;;;;;;23.27;20.77;;;973.30;460.80;;;;;;5013414;28;20025;-72
2021/03/11 09:30:00;;;;;;;18.52;16.52;;;973.70;486.40;;;;;;5013286;28;20026;-72
2021/03/11 09:32:26;;;;;;;;;;;1024.10;460.80;;;;;;5014199;28;21500;-73
2021/03/11 09:34:53;;;;;;;19.83;16.38;;;998.80;486.40;;;;;;5013469;28;19921;-73
2021/03/11 09:37:55;;;;;;;17.52;15.63;;;998.90;460.80;;;;;;5013337;28;20103;-74
2021/03/11 09:40:25;;;;;;;37.05;31.55;;;973.20;460.80;;;;;;5004606;28;20033;-73
2021/03/11 09:43:06;;;;;;;22.00;19.20;;;1024.30;460.80;;;;;;5013427;28;20052;-73
2021/03/11 09:45:34;;;;;;;23.30;19.73;;;1049.70;460.80;;;;;;5013103;28;20494;-72
2021/03/11 09:48:18;;;;;;;22.40;19.20;;;1050.30;435.20;;;;;;5013289;28;20014;-73
2021/03/11 09:50:57;;;;;;;21.13;18.52;;;1075.40;460.80;;;;;;5013092;28;20037;-73
2021/03/11 09:53:31;;;;;;;24.60;19.50;;;1075.60;460.80;;;;;;5009351;28;20025;-72
2021/03/11 09:55:57;;;;;;;23.42;19.65;;;1075.70;435.20;;;;;;5013129;28;20418;-72
2021/03/11 09:58:24;;;;;;;17.88;15.82;;;1101.30;460.80;;;;;;5012869;28;20018;-72
2021/03/11 10:00:50;;;;;;;17.13;15.30;;;1050.50;435.20;;;;;;5011759;28;20561;-72
2021/03/11 10:03:27;;;;;;;19.60;16.45;;;1075.20;435.20;;;;;;4995371;28;20488;-73
2021/03/11 10:06:05;;;;;;;18.17;15.90;;;1100.90;435.20;;;;;;5000924;28;20026;-74
2021/03/11 10:08:37;;;;;;;18.60;16.02;;;1126.50;435.20;;;;;;5012509;28;20022;-73
2021/03/11 10:11:04;;;;;;;19.25;16.67;;;1101.70;409.60;;;;;;5012848;28;20028;-73
2021/03/11 10:13:38;;;;;;;19.38;15.63;;;1126.50;435.20;;;;;;5011802;28;20045;-74
2021/03/11 10:16:05;;;;;;;20.13;16.33;;;1126.50;435.20;;;;;;5007466;28;20506;-76
2021/03/11 10:18:31;;;;;;;22.88;19.77;;;1126.40;435.20;;;;;;4992640;28;20023;-72
2021/03/11 10:21:09;;;;;;;18.75;16.67;;;1127.10;409.60;;;;;;5012683;28;20105;-73
2021/03/11 10:23:38;;;;;;;20.17;17.85;;;1152.70;409.60;;;;;;5012366;28;20029;-75
2021/03/11 10:26:12;;;;;;;16.47;14.00;;;1203.20;435.20;;;;;;4999723;28;20021;-72
2021/03/11 10:28:40;;;;;;;14.90;12.27;;;1152.40;409.60;;;;;;5010344;28;20372;-73
2021/03/11 10:31:07;;;;;;;15.50;12.73;;;1152.40;409.60;;;;;;4994858;28;20046;-73
2021/03/11 10:33:33;;;;;;;15.90;12.38;;;1177.70;409.60;;;;;;5007175;28;20089;-73
2021/03/11 10:36:18;;;;;;;14.60;12.40;;;1152.40;409.60;;;;;;5011610;28;20022;-73
2021/03/11 10:39:03;;;;;;;15.27;13.68;;;1152.40;409.60;;;;;;4999998;28;20022;-72
2021/03/11 10:41:29;;;;;;;15.52;13.88;;;1101.70;409.60;;;;;;5005649;28;20085;-74
2021/03/11 10:44:13;;;;;;;17.98;14.10;;;998.90;435.20;;;;;;4994541;28;20538;-75
2021/03/11 10:46:43;;;;;;;17.23;14.05;;;999.30;435.20;;;;;;4993966;28;20026;-73
2021/03/11 10:49:11;;;;;;;16.55;13.57;;;1075.70;409.60;;;;;;5006679;28;20383;-75
2021/03/11 10:51:37;;;;;;;15.73;13.98;;;1101.00;409.60;;;;;;5011232;28;20034;-74
2021/03/11 10:54:04;;;;;;;21.48;16.35;;;1152.10;409.60;;;;;;5007009;28;20018;-74
2021/03/11 10:56:30;;;;;;;22.40;18.88;;;1127.30;409.60;;;;;;5011199;28;20037;-73
2021/03/11 10:59:01;;;;;;;18.08;15.52;;;1101.20;409.60;;;;;;5011049;28;20032;-74
2021/03/11 11:01:28;;;;;;;16.98;13.95;;;1127.10;409.60;;;;;;5000406;28;20468;-73
2021/03/11 11:03:55;;;;;;;16.88;12.80;;;1126.40;409.60;;;;;;5011301;28;20076;-74
2021/03/11 11:06:23;;;;;;;12.73;11.13;;;1127.10;409.60;;;;;;4999670;28;20061;-73
2021/03/11 11:08:49;;;;;;;14.73;11.82;;;1152.10;409.60;;;;;;4994246;28;20018;-73
2021/03/11 11:11:17;;;;;;;14.88;13.00;;;1152.40;409.60;;;;;;5001929;28;20041;-73
2021/03/11 11:13:43;;;;;;;16.95;14.27;;;1152.10;409.60;;;;;;4995003;28;20038;-73
2021/03/11 11:16:12;;;;;;;16.15;12.88;;;1101.10;409.60;;;;;;4996450;28;20026;-73
2021/03/11 11:18:39;;;;;;;14.63;12.90;;;1126.50;409.60;;;;;;4998085;28;20511;-73
2021/03/11 11:21:05;;;;;;;15.10;12.73;;;1126.40;409.60;;;;;;4998992;28;20077;-77
2021/03/11 11:23:31;;;;;;;14.73;12.35;;;1152.40;409.60;;;;;;5003686;28;20433;-73
2021/03/11 11:25:57;;;;;;;14.10;12.50;;;1127.00;409.60;;;;;;5003323;28;20034;-74
2021/03/11 11:28:23;;;;;;;11.60;10.40;;;1152.90;409.60;;;;;;5001775;28;20084;-73
2021/03/11 11:30:49;;;;;;;15.75;12.48;;;1050.20;409.60;;;;;;4997142;28;20513;-74
2021/03/11 11:33:15;;;;;;;12.60;10.35;;;998.80;435.20;;;;;;4997961;28;20025;-73
2021/03/11 11:35:41;;;;;;;11.93;9.50;;;922.00;435.20;;;;;;4993198;28;20380;-73
2021/03/11 11:38:07;;;;;;;12.63;10.30;;;972.80;409.60;;;;;;4991892;28;20391;-73
2021/03/11 11:40:32;;;;;;;13.13;11.20;;;998.80;409.60;;;;;;5005252;28;20335;-72
2021/03/11 11:42:59;;;;;;;14.43;11.88;;;1024.60;384.00;;;;;;5011263;28;20025;-74
2021/03/11 11:45:24;;;;;;;15.32;12.40;;;1024.90;409.60;;;;;;5011375;28;20533;-78
2021/03/11 11:47:50;;;;;;;15.40;13.23;;;1024.60;409.60;;;;;;5009483;28;20030;-72
2021/03/11 11:50:17;;;;;;;15.93;13.73;;;973.10;435.20;;;;;;4991176;28;20447;-77
2021/03/11 11:52:43;;;;;;;14.15;11.88;;;921.60;460.80;;;;;;4992428;28;20381;-74
2021/03/11 11:55:11;;;;;;;13.82;11.57;;;896.80;435.20;;;;;;4991232;28;20030;-73
2021/03/11 11:57:38;;;;;;;17.50;12.73;;;947.90;435.20;;;;;;4993313;28;20115;-73
2021/03/11 12:00:09;;;;;;;19.98;14.63;;;871.30;486.40;;;;;;5004600;28;20030;-72
2021/03/11 12:02:35;;;;;;;13.88;11.32;;;896.90;460.80;;;;;;5008369;28;20037;-72
2021/03/11 12:05:02;;;;;;;19.20;15.30;;;896.00;486.40;;;;;;4993507;28;20105;-72
2021/03/11 12:07:28;;;;;;;14.63;11.90;;;743.00;537.60;;;;;;4999110;28;20034;-72
2021/03/11 12:09:55;;;;;;;18.23;13.85;;;666.40;563.20;;;;;;5008304;28;20037;-72
2021/03/11 12:12:20;;;;;;;16.33;11.13;;;563.20;742.40;;;;;;5009769;28;20262;-72
2021/03/11 12:14:46;;;;;;;17.73;11.75;;;487.30;691.20;;;;;;5002061;28;20100;-74
2021/03/11 12:17:12;;;;;;;17.23;11.35;;;435.20;793.60;;;;;;4997403;28;20069;-71
2021/03/11 12:19:38;;;;;;;16.75;12.18;;;410.20;844.80;;;;;;5010262;28;20029;-73